YRHO weather

Royal Childrens Hospital Helipad
Melbourne, Victoria, Australia

Public forecast

Using degrees Celsius for public forecast. Weather courtesy of forecast.io.

Closest aviation weather report (METAR) to Royal Childrens Hospital Helipad

Closest report is Melbourne Essendon Airport, 4.6 nm (8.5 km) NNW. Retrieved 2019/10/20 23:00 UTC (42 minutes ago):

YMEN 202300Z AUTO 19006KT 9999 // OVC018 12/08 Q1029

Closest aviation forecast (TAF) to Royal Childrens Hospital Helipad

Forecast is more than 6 hours old.

Closest forecast is Melbourne International Airport, 8.9 nm (16.5 km) NW. Retrieved 2019/10/20 12:38 UTC (11 hours ago):

TAF YMML 201132Z 2012/2118 24010KT 9999 BKN025 BECMG 2023/2024 17014KT CAVOK FM211000 19006KT 9999 BKN012 TEMPO 2014/2018 9999 BKN015 TEMPO 2018/2022 9999 BKN010 TEMPO 2116/2118 9999 BKN009